createdAt,value
2023-03-30T00:02:23.554Z,3.30
2023-03-30T00:07:27.825Z,3.40
2023-03-30T00:12:30.976Z,2.93
2023-03-30T00:17:34.430Z,3.20
2023-03-30T00:22:39.143Z,3.30
2023-03-30T00:27:43.462Z,3.00
2023-03-30T00:32:47.933Z,2.90
2023-03-30T00:37:52.674Z,3.20
2023-03-30T00:43:00.037Z,2.80
2023-03-30T00:48:07.932Z,2.47
2023-03-30T00:53:16.263Z,2.70
2023-03-30T00:58:21.232Z,2.70
2023-03-30T01:03:28.633Z,2.73
2023-03-30T01:08:33.643Z,2.43
2023-03-30T01:13:39.325Z,2.60
2023-03-30T01:18:55.202Z,2.83
2023-03-30T01:24:36.233Z,2.53
2023-03-30T01:29:50.951Z,2.73
2023-03-30T01:35:32.522Z,2.80
2023-03-30T01:40:43.171Z,2.63
2023-03-30T01:45:49.809Z,2.80
2023-03-30T01:50:56.431Z,2.77
2023-03-30T01:56:05.227Z,2.40
2023-03-30T02:01:10.328Z,3.83
2023-03-30T02:06:20.539Z,5.67
2023-03-30T02:11:28.137Z,3.50
2023-03-30T02:16:37.468Z,4.87
2023-03-30T02:21:40.771Z,4.90
2023-03-30T02:26:46.230Z,5.47
2023-03-30T02:31:52.006Z,6.13
2023-03-30T02:37:09.972Z,6.60
2023-03-30T02:42:39.493Z,5.23
2023-03-30T02:47:54.289Z,5.80
2023-03-30T02:53:00.466Z,6.57
2023-03-30T02:58:15.390Z,7.23
2023-03-30T03:03:39.513Z,6.47
2023-03-30T03:08:47.823Z,7.10
2023-03-30T03:13:59.357Z,7.67
2023-03-30T03:19:04.271Z,7.67
2023-03-30T03:24:08.130Z,6.83
2023-03-30T03:29:51.068Z,7.90
2023-03-30T03:34:54.421Z,8.53
2023-03-30T03:39:57.978Z,8.50
2023-03-30T03:45:03.348Z,8.17
2023-03-30T03:50:09.775Z,7.93
2023-03-30T03:55:13.252Z,8.17
2023-03-30T04:00:21.615Z,9.40
2023-03-30T04:05:28.316Z,9.10
2023-03-30T04:10:32.278Z,9.30
2023-03-30T04:15:50.433Z,8.80
2023-03-30T04:21:13.371Z,8.50
2023-03-30T04:26:25.375Z,7.50
2023-03-30T04:31:39.458Z,11.87
2023-03-30T04:36:44.286Z,9.40
2023-03-30T04:42:14.312Z,10.93
2023-03-30T04:47:57.185Z,9.30
2023-03-30T04:53:00.119Z,10.00
2023-03-30T04:58:29.097Z,11.23
2023-03-30T05:03:50.978Z,10.87
2023-03-30T05:09:23.326Z,12.43
2023-03-30T05:14:54.077Z,13.40
2023-03-30T05:20:18.898Z,14.37
2023-03-30T05:25:57.027Z,13.67
2023-03-30T05:31:26.594Z,12.90
2023-03-30T05:36:51.090Z,13.60
2023-03-30T05:42:13.393Z,12.87
2023-03-30T05:47:28.893Z,13.40
2023-03-30T05:52:49.265Z,14.73
2023-03-30T05:58:00.718Z,10.97
2023-03-30T06:03:26.755Z,6.20
2023-03-30T06:08:31.189Z,17.10
2023-03-30T06:13:38.270Z,13.87
2023-03-30T06:18:41.776Z,6.57
2023-03-30T06:23:50.567Z,7.00
2023-03-30T06:28:57.513Z,4.17
2023-03-30T06:34:01.050Z,3.30
2023-03-30T06:39:06.734Z,2.63
2023-03-30T06:44:14.827Z,3.27
2023-03-30T06:49:21.950Z,2.73
2023-03-30T06:54:53.840Z,2.63
2023-03-30T06:59:57.742Z,2.63
2023-03-30T07:05:16.662Z,2.47
2023-03-30T07:10:59.220Z,2.33
2023-03-30T07:16:07.066Z,3.00
2023-03-30T07:21:10.832Z,2.40
2023-03-30T07:26:17.478Z,2.37
2023-03-30T07:31:29.502Z,3.23
2023-03-30T07:36:33.238Z,3.70
2023-03-30T07:41:37.728Z,2.67
2023-03-30T07:46:41.172Z,2.80
2023-03-30T07:51:49.130Z,3.30
2023-03-30T07:57:03.776Z,4.20
2023-03-30T08:02:07.826Z,2.53
2023-03-30T08:07:18.921Z,2.90
2023-03-30T08:12:25.664Z,2.60
2023-03-30T08:17:28.695Z,3.20
2023-03-30T08:22:31.768Z,3.10
2023-03-30T08:27:36.223Z,2.90
2023-03-30T08:32:39.160Z,3.03
2023-03-30T08:37:42.375Z,3.40
2023-03-30T08:43:05.000Z,3.27
2023-03-30T08:48:17.671Z,3.70
2023-03-30T08:53:20.821Z,2.67
2023-03-30T08:58:34.895Z,3.47
2023-03-30T09:03:42.370Z,2.77
2023-03-30T09:08:46.054Z,3.00
2023-03-30T09:13:52.533Z,4.00
2023-03-30T09:18:57.727Z,3.40
2023-03-30T09:24:07.349Z,3.23
2023-03-30T09:29:19.301Z,3.40
2023-03-30T09:34:27.481Z,2.90
2023-03-30T09:39:33.536Z,3.53
2023-03-30T09:44:45.434Z,3.47
2023-03-30T09:49:48.340Z,3.37
2023-03-30T09:54:51.234Z,3.93
2023-03-30T09:59:56.558Z,3.60
2023-03-30T10:05:02.773Z,4.73
2023-03-30T10:10:17.146Z,5.30
2023-03-30T10:15:24.555Z,5.10
2023-03-30T10:20:29.754Z,4.20
2023-03-30T10:25:34.914Z,4.10
2023-03-30T10:30:39.224Z,4.00
2023-03-30T10:35:42.151Z,3.63
2023-03-30T10:40:47.134Z,3.20
2023-03-30T10:45:54.380Z,2.60
2023-03-30T10:51:06.221Z,2.70
2023-03-30T10:56:24.065Z,2.03
2023-03-30T11:01:37.553Z,2.47
2023-03-30T11:06:42.828Z,1.73
2023-03-30T11:11:50.946Z,2.00
2023-03-30T11:17:01.040Z,1.80
2023-03-30T11:22:13.588Z,2.20
2023-03-30T11:27:21.789Z,1.60
2023-03-30T11:32:34.267Z,1.70
2023-03-30T11:37:42.539Z,2.13
2023-03-30T11:42:46.087Z,1.70
2023-03-30T11:48:05.970Z,1.87
2023-03-30T11:53:24.295Z,2.00
2023-03-30T11:58:36.307Z,1.83
2023-03-30T12:03:43.422Z,2.27
2023-03-30T12:09:02.325Z,2.40
2023-03-30T12:14:12.706Z,2.83
2023-03-30T12:19:24.813Z,3.60
2023-03-30T12:24:34.645Z,3.70
2023-03-30T12:30:02.391Z,4.07
2023-03-30T12:35:39.517Z,4.50
2023-03-30T12:40:47.367Z,3.73
2023-03-30T12:46:02.184Z,4.00
2023-03-30T12:51:15.692Z,3.80
2023-03-30T12:56:31.426Z,4.00
2023-03-30T13:01:56.826Z,4.17
2023-03-30T13:07:03.266Z,4.30
2023-03-30T13:12:36.121Z,4.00
2023-03-30T13:18:00.335Z,4.10
2023-03-30T13:23:26.005Z,3.70
2023-03-30T13:28:48.802Z,3.40
2023-03-30T13:34:00.646Z,4.07
2023-03-30T13:39:14.752Z,4.20
2023-03-30T13:44:36.875Z,9.47
2023-03-30T13:49:51.948Z,4.07
2023-03-30T13:54:55.085Z,3.70
2023-03-30T14:00:05.515Z,3.50
2023-03-30T14:05:28.958Z,3.33
2023-03-30T14:10:32.027Z,3.30
2023-03-30T14:15:39.188Z,3.43
2023-03-30T14:20:48.617Z,2.80
2023-03-30T14:25:54.834Z,2.70
2023-03-30T14:31:03.237Z,2.77
2023-03-30T14:36:08.910Z,2.53
2023-03-30T14:41:17.537Z,2.80
2023-03-30T14:46:24.616Z,2.73
2023-03-30T14:51:35.389Z,2.70
2023-03-30T14:56:38.459Z,3.00
2023-03-30T15:01:44.222Z,2.63
2023-03-30T15:06:48.593Z,3.30
2023-03-30T15:11:56.998Z,2.60
2023-03-30T15:17:05.107Z,2.97
2023-03-30T15:22:17.087Z,2.30
2023-03-30T15:27:20.308Z,1.90
2023-03-30T15:32:30.381Z,2.20
2023-03-30T15:37:34.522Z,2.00
2023-03-30T15:42:37.528Z,2.33
2023-03-30T15:47:42.849Z,2.67
2023-03-30T15:52:46.765Z,1.80
2023-03-30T15:57:52.581Z,1.50
2023-03-30T16:02:58.610Z,1.87
2023-03-30T16:08:01.638Z,1.43
2023-03-30T16:13:06.962Z,1.50
2023-03-30T16:18:12.666Z,1.33
2023-03-30T16:23:15.633Z,1.37
2023-03-30T16:28:18.973Z,1.60
2023-03-30T16:33:24.415Z,1.27
2023-03-30T16:38:27.374Z,2.67
2023-03-30T16:43:30.289Z,1.47
2023-03-30T16:48:34.578Z,1.33
2023-03-30T16:53:37.446Z,1.23
2023-03-30T16:58:40.387Z,1.30
2023-03-30T17:03:45.286Z,2.40
2023-03-30T17:08:48.214Z,1.70
2023-03-30T17:13:51.331Z,0.93
2023-03-30T17:18:55.704Z,1.20
2023-03-30T17:23:58.881Z,1.17
2023-03-30T17:29:01.900Z,1.90
2023-03-30T17:34:06.762Z,1.20
2023-03-30T17:39:13.238Z,1.27
2023-03-30T17:44:16.345Z,1.23
2023-03-30T17:49:20.765Z,1.00
2023-03-30T17:54:24.029Z,1.70
2023-03-30T17:59:27.035Z,1.40
2023-03-30T18:04:31.326Z,1.37
2023-03-30T18:09:34.403Z,2.00
2023-03-30T18:14:37.299Z,1.00
2023-03-30T18:19:41.553Z,1.20
2023-03-30T18:24:44.460Z,1.20
2023-03-30T18:29:47.389Z,1.20
2023-03-30T18:34:51.721Z,1.30
2023-03-30T18:39:54.621Z,1.20
2023-03-30T18:44:57.546Z,1.67
2023-03-30T18:50:01.861Z,1.00
2023-03-30T18:55:05.537Z,1.20
2023-03-30T19:00:19.725Z,1.40
2023-03-30T19:05:26.552Z,1.30
2023-03-30T19:10:32.428Z,1.07
2023-03-30T19:15:36.818Z,1.40
2023-03-30T19:20:42.026Z,1.50
2023-03-30T19:25:46.262Z,1.30
2023-03-30T19:30:49.374Z,1.20
2023-03-30T19:35:53.725Z,1.30
2023-03-30T19:41:00.690Z,1.27
2023-03-30T19:46:04.865Z,1.10
2023-03-30T19:51:09.375Z,1.60
2023-03-30T19:56:12.788Z,1.10
2023-03-30T20:01:15.698Z,1.27
2023-03-30T20:06:19.986Z,1.20
2023-03-30T20:11:23.337Z,1.30
2023-03-30T20:16:26.393Z,1.40
2023-03-30T20:21:31.200Z,1.50
2023-03-30T20:26:34.179Z,1.50
2023-03-30T20:31:37.156Z,1.20
2023-03-30T20:36:41.502Z,1.47
2023-03-30T20:41:44.606Z,1.60
2023-03-30T20:46:47.542Z,1.30
2023-03-30T20:51:53.160Z,1.77
2023-03-30T20:56:56.443Z,1.40
2023-03-30T21:02:00.023Z,1.97
2023-03-30T21:07:04.394Z,1.87
2023-03-30T21:12:09.637Z,1.50
2023-03-30T21:17:13.103Z,1.73
2023-03-30T21:22:18.021Z,1.50
2023-03-30T21:27:20.958Z,1.80
2023-03-30T21:32:23.874Z,1.53
2023-03-30T21:37:28.136Z,1.70
2023-03-30T21:42:31.162Z,1.60
2023-03-30T21:47:34.119Z,1.30
2023-03-30T21:52:38.386Z,1.50
2023-03-30T21:57:41.310Z,1.60
2023-03-30T22:02:44.318Z,1.30
2023-03-30T22:07:48.637Z,1.60
2023-03-30T22:12:51.550Z,1.43
2023-03-30T22:17:54.537Z,1.77
2023-03-30T22:22:59.168Z,1.40
2023-03-30T22:28:02.689Z,1.60
2023-03-30T22:33:05.693Z,1.40
2023-03-30T22:38:11.338Z,1.90
2023-03-30T22:43:14.408Z,1.40
2023-03-30T22:48:17.289Z,1.50
2023-03-30T22:53:21.710Z,1.47
2023-03-30T22:58:24.965Z,1.50
2023-03-30T23:03:27.879Z,1.60
2023-03-30T23:08:32.800Z,1.43
2023-03-30T23:13:37.108Z,1.50
2023-03-30T23:18:40.970Z,1.40
2023-03-30T23:23:45.242Z,1.47
2023-03-30T23:28:48.603Z,1.57
2023-03-30T23:33:52.658Z,1.83
2023-03-30T23:38:56.982Z,2.17
2023-03-30T23:43:59.863Z,1.63
2023-03-30T23:49:03.445Z,1.50
2023-03-30T23:54:07.964Z,1.90
2023-03-30T23:59:11.613Z,1.60
